Riverton, WY

4:31 PM MDT on October 25, 2014 (GMT -0600)
Logan Park | Change Station
CLOSE
Current Station
Personal Weather Station
Location: Riverton, WY
Elevation: 4984 ft
Nearby Weather Stations

Elev 4984 ft 43.04 °N, 108.39 °W | Updated 9 seconds ago

Clear
Clear
78.0 °F
Feels Like 77 °F
N
0.0
Wind Variable Wind from NNE
Gusts 0.0 mph

Today
High -- | Low -- °F
--% Chance of Precip.
Yesterday
High -- | Low -- °F
Precip. -- in
7:39 AM 6:15 PM
Waxing Crescent, 4% visible
Pressure 29.85 in
Visibility 10.0 miles
Clouds Clear
Heat Index 77 °F
Dew Point 32 °F
Humidity 19%
Rainfall 0.00 in
Snow Depth Not available.
UV 2 out of 12
Pollen 2.10 out of 12
Air Quality Not available.
Flu Activity Sporadic
METAR KRIW 252153Z AUTO 20005KT 10SM CLR 22/M05 A2998 RMK AO2 SLP107 T02171050

More Conditions Fewer Conditions

Pressure 29.85 in
Visibility 10.0 miles
Clouds Clear
Heat Index 77 °F
Dew Point 32 °F
Humidity 19%
Rainfall 0.00 in
Snow Depth Not available.
UV 2 out of 12
Pollen 2.10 out of 12
Air Quality Not available.
Flu Activity Sporadic
METAR KRIW 252153Z AUTO 20005KT 10SM CLR 22/M05 A2998 RMK AO2 SLP107 T02171050

More Conditions Fewer Conditions

10-Day Weather Forecast

Almanac

Astronomy

Oct. 25, 2014 Rise Set
Actual Time 7:39 AM MDT 6:15 PM MDT
Civil Twilight 7:10 AM MDT 6:44 PM MDT
Nautical Twilight 6:37 AM MDT 7:17 PM MDT
Astronomical Twilight 6:04 AM MDT 7:50 PM MDT
Moon 9:23 AM MDT 7:38 PM MDT
Length of Visible Light 11h 33m
Length of Day
10h 35m
Tomorrow will be 2m 42s shorter.
Waxing Crescent, 4% of the Moon is Illuminated
Today
Waxing Crescent
Oct 30
First Quarter
Nov 6
Full
Nov 14
Last Quarter
Nov 22
New

Today's Extremes

State Highs State Lows

Community

WunderPhotos

Upload Photos

1,765,016 photos uploaded!

Nearby

Snow Depth

Station Depth Elevation
Big Sandy Opening 1 in 9080 ft
Middle Powder 1 in 7760 ft
Little Warm 0 in 9370 ft
Gunsight Pass 0 in 9820 ft
Kendall R.S. 0 in 7740 ft

Earthquake Activity

City Distance Mag. Time & Date
No recent earthquake activity has been reported nearby.
Minimum magnitude displayed is 2.5.

Coastal Water Temperatures

Place Temperature
No Stations Reporting

Nearby Weather Stations